createdAt,value
2018-09-25T00:00:34.702Z,84.10
2018-09-25T00:03:08.570Z,84.00
2018-09-25T00:05:49.129Z,84.10
2018-09-25T00:08:23.101Z,84.10
2018-09-25T00:11:03.762Z,84.40
2018-09-25T00:13:37.959Z,84.60
2018-09-25T00:16:12.215Z,84.10
2018-09-25T00:18:46.343Z,84.00
2018-09-25T00:21:20.345Z,83.80
2018-09-25T00:23:54.275Z,83.30
2018-09-25T00:26:28.207Z,83.60
2018-09-25T00:29:02.100Z,83.80
2018-09-25T00:31:35.941Z,84.00
2018-09-25T00:34:09.923Z,83.50
2018-09-25T00:36:44.210Z,84.30
2018-09-25T00:39:18.413Z,83.70
2018-09-25T00:41:52.370Z,84.00
2018-09-25T00:44:26.415Z,83.90
2018-09-25T00:47:00.560Z,84.00
2018-09-25T00:49:35.605Z,84.20
2018-09-25T00:52:09.608Z,83.50
2018-09-25T00:54:43.534Z,83.00
2018-09-25T00:57:17.418Z,82.80
2018-09-25T00:59:51.333Z,83.50
2018-09-25T01:02:25.391Z,83.60
2018-09-25T01:04:59.602Z,83.60
2018-09-25T01:07:33.488Z,83.20
2018-09-25T01:10:07.474Z,83.10
2018-09-25T01:12:41.400Z,83.10
2018-09-25T01:15:15.754Z,83.10
2018-09-25T01:17:49.607Z,83.00
2018-09-25T01:20:23.764Z,83.10
2018-09-25T01:22:57.755Z,82.90
2018-09-25T01:25:31.810Z,82.50
2018-09-25T01:28:06.171Z,82.40
2018-09-25T01:30:40.306Z,82.20
2018-09-25T01:33:14.414Z,82.20
2018-09-25T01:35:48.332Z,82.20
2018-09-25T01:38:28.969Z,81.70
2018-09-25T01:41:02.897Z,81.80
2018-09-25T01:43:37.480Z,81.80
2018-09-25T01:46:11.340Z,82.20
2018-09-25T01:48:45.497Z,82.20
2018-09-25T01:51:19.550Z,82.50
2018-09-25T01:53:53.660Z,82.50
2018-09-25T01:56:27.771Z,82.70
2018-09-25T01:59:02.193Z,83.00
2018-09-25T02:01:36.264Z,82.80
2018-09-25T02:04:10.520Z,82.30
2018-09-25T02:06:44.542Z,82.70
2018-09-25T02:09:18.685Z,82.50
2018-09-25T02:11:52.717Z,82.30
2018-09-25T02:14:26.745Z,82.60
2018-09-25T02:17:00.735Z,82.80
2018-09-25T02:19:34.789Z,83.40
2018-09-25T02:22:08.730Z,83.50
2018-09-25T02:24:42.763Z,83.40
2018-09-25T02:27:16.865Z,83.20
2018-09-25T02:29:50.935Z,82.80
2018-09-25T02:32:24.896Z,83.10
2018-09-25T02:34:59.425Z,83.20
2018-09-25T02:37:33.474Z,83.50
2018-09-25T02:40:07.522Z,83.30
2018-09-25T02:42:41.433Z,83.10
2018-09-25T02:45:15.349Z,83.10
2018-09-25T02:47:49.332Z,83.20
2018-09-25T02:50:23.317Z,83.50
2018-09-25T02:52:57.553Z,83.50
2018-09-25T02:55:31.722Z,83.30
2018-09-25T02:58:05.701Z,83.50
2018-09-25T03:00:39.795Z,83.60
2018-09-25T03:03:13.769Z,83.70
2018-09-25T03:05:47.728Z,83.70
2018-09-25T03:08:21.785Z,83.70
2018-09-25T03:10:55.869Z,83.60
2018-09-25T03:13:30.268Z,83.50
2018-09-25T03:16:04.261Z,83.90
2018-09-25T03:18:38.331Z,84.10
2018-09-25T03:21:12.293Z,84.40
2018-09-25T03:23:46.469Z,84.20
2018-09-25T03:26:20.391Z,84.50
2018-09-25T03:28:54.333Z,85.00
2018-09-25T03:31:28.375Z,84.40
2018-09-25T03:34:02.381Z,84.20
2018-09-25T03:36:36.395Z,83.80
2018-09-25T03:39:12.975Z,83.50
2018-09-25T03:41:46.961Z,83.60
2018-09-25T03:44:21.265Z,83.80
2018-09-25T03:46:55.333Z,84.10
2018-09-25T03:49:29.395Z,84.30
2018-09-25T03:52:03.305Z,84.50
2018-09-25T03:54:37.223Z,84.10
2018-09-25T03:57:11.143Z,84.70
2018-09-25T03:59:45.287Z,85.20
2018-09-25T04:02:19.326Z,85.90
2018-09-25T04:04:53.430Z,85.80
2018-09-25T04:07:27.494Z,85.80
2018-09-25T04:10:01.487Z,85.60
2018-09-25T04:12:35.552Z,85.30
2018-09-25T04:15:09.796Z,85.40
2018-09-25T04:17:44.243Z,85.20
2018-09-25T04:20:18.536Z,85.00
2018-09-25T04:22:52.597Z,85.00
2018-09-25T04:25:26.687Z,84.80
2018-09-25T04:28:00.597Z,84.50
2018-09-25T04:30:41.252Z,84.40
2018-09-25T04:33:15.725Z,83.90
2018-09-25T04:35:49.765Z,84.00
2018-09-25T04:38:23.777Z,83.90
2018-09-25T04:40:58.084Z,83.90
2018-09-25T04:43:32.057Z,83.80
2018-09-25T04:46:06.000Z,83.60
2018-09-25T04:48:40.029Z,83.40
2018-09-25T04:51:14.109Z,83.40
2018-09-25T04:53:48.020Z,83.50
2018-09-25T04:56:23.837Z,83.50
2018-09-25T04:58:59.311Z,83.40
2018-09-25T05:01:33.298Z,83.70
2018-09-25T05:04:07.400Z,83.70
2018-09-25T05:06:41.514Z,84.10
2018-09-25T05:09:15.680Z,84.10
2018-09-25T05:11:49.710Z,84.30
2018-09-25T05:14:23.735Z,84.20
2018-09-25T05:16:58.100Z,84.40
2018-09-25T05:19:32.413Z,84.90
2018-09-25T05:22:06.393Z,85.00
2018-09-25T05:24:40.515Z,83.40
2018-09-25T05:27:14.449Z,83.00
2018-09-25T05:29:48.292Z,82.00
2018-09-25T05:32:22.403Z,82.00
2018-09-25T05:34:56.598Z,81.90
2018-09-25T05:37:30.560Z,81.50
2018-09-25T05:40:04.600Z,82.00
2018-09-25T05:42:38.626Z,82.30
2018-09-25T05:45:12.589Z,82.00
2018-09-25T05:47:46.566Z,82.20
2018-09-25T05:50:20.617Z,82.30
2018-09-25T05:52:54.530Z,82.40
2018-09-25T05:55:28.593Z,82.20
2018-09-25T05:58:02.576Z,82.50
2018-09-25T06:00:36.662Z,82.80
2018-09-25T06:03:10.783Z,82.80
2018-09-25T06:05:44.688Z,83.10
2018-09-25T06:08:18.676Z,83.40
2018-09-25T06:10:52.817Z,83.60
2018-09-25T06:13:27.119Z,83.20
2018-09-25T06:16:01.198Z,83.50
2018-09-25T06:18:35.629Z,80.80
2018-09-25T06:21:09.808Z,81.20
2018-09-25T06:23:43.853Z,85.00
2018-09-25T06:26:17.757Z,81.50
2018-09-25T06:28:51.951Z,84.00
2018-09-25T06:31:25.917Z,80.10
2018-09-25T06:34:00.014Z,79.50
2018-09-25T06:36:34.085Z,80.50
2018-09-25T06:39:08.069Z,79.00
2018-09-25T06:41:42.043Z,78.00
2018-09-25T06:44:16.163Z,75.60
2018-09-25T06:46:50.333Z,73.00
2018-09-25T06:49:24.329Z,70.30
2018-09-25T06:51:58.471Z,67.90
2018-09-25T06:54:32.534Z,69.50
2018-09-25T06:57:06.496Z,69.00
2018-09-25T06:59:40.521Z,70.50
2018-09-25T07:02:14.539Z,68.50
2018-09-25T07:04:48.427Z,68.60
2018-09-25T07:07:22.375Z,69.20
2018-09-25T07:09:56.568Z,68.80
2018-09-25T07:12:30.918Z,65.60
2018-09-25T07:15:04.905Z,67.60
2018-09-25T07:17:38.959Z,66.70
2018-09-25T07:20:13.046Z,67.00
2018-09-25T07:22:47.100Z,67.10
2018-09-25T07:25:21.053Z,66.80
2018-09-25T07:27:55.064Z,66.40
2018-09-25T07:30:29.162Z,66.70
2018-09-25T07:33:03.050Z,67.20
2018-09-25T07:35:37.057Z,66.20
2018-09-25T07:38:11.063Z,66.70
2018-09-25T07:40:45.173Z,66.00
2018-09-25T07:43:19.234Z,65.50
2018-09-25T07:45:53.355Z,62.90
2018-09-25T07:48:27.257Z,64.00
2018-09-25T07:51:01.288Z,63.70
2018-09-25T07:53:35.317Z,64.60
2018-09-25T07:56:09.295Z,64.40
2018-09-25T07:58:43.229Z,66.40
2018-09-25T08:01:17.128Z,66.30
2018-09-25T08:03:51.090Z,66.20
2018-09-25T08:06:25.032Z,66.60
2018-09-25T08:08:59.041Z,65.20
2018-09-25T08:11:32.881Z,65.60
2018-09-25T08:14:06.775Z,65.20
2018-09-25T08:16:40.678Z,65.80
2018-09-25T08:19:14.721Z,65.50
2018-09-25T08:21:48.774Z,65.20
2018-09-25T08:24:22.766Z,64.50
2018-09-25T08:26:56.735Z,63.50
2018-09-25T08:29:30.776Z,65.20
2018-09-25T08:32:04.649Z,64.70
2018-09-25T08:34:38.705Z,62.50
2018-09-25T08:37:12.694Z,62.60
2018-09-25T08:39:46.717Z,62.50
2018-09-25T08:42:20.586Z,64.10
2018-09-25T08:44:54.733Z,62.40
2018-09-25T08:47:28.660Z,63.00
2018-09-25T08:50:02.608Z,61.00
2018-09-25T08:52:36.654Z,62.10
2018-09-25T08:55:10.594Z,64.30
2018-09-25T08:57:44.616Z,59.40
2018-09-25T09:00:18.469Z,62.60
2018-09-25T09:02:52.454Z,61.10
2018-09-25T09:05:26.414Z,59.00
2018-09-25T09:08:00.466Z,58.50
2018-09-25T09:10:34.655Z,61.50
2018-09-25T09:13:08.757Z,58.50
2018-09-25T09:15:42.973Z,57.00
2018-09-25T09:18:16.983Z,56.70
2018-09-25T09:20:51.070Z,57.80
2018-09-25T09:23:25.011Z,55.70
2018-09-25T09:25:58.875Z,56.80
2018-09-25T09:28:33.104Z,56.00
2018-09-25T09:31:07.152Z,55.80
2018-09-25T09:33:41.223Z,56.00
2018-09-25T09:36:15.241Z,55.40
2018-09-25T09:38:49.098Z,55.20
2018-09-25T09:41:23.120Z,55.90
2018-09-25T09:43:57.475Z,55.40
2018-09-25T09:46:31.562Z,54.30
2018-09-25T09:49:05.518Z,54.60
2018-09-25T09:51:39.338Z,55.90
2018-09-25T09:54:13.304Z,55.30
2018-09-25T09:56:47.122Z,53.20
2018-09-25T09:59:21.155Z,53.60
2018-09-25T10:01:55.421Z,53.30
2018-09-25T10:04:29.287Z,53.70
2018-09-25T10:07:03.293Z,54.10
2018-09-25T10:09:37.497Z,55.20
2018-09-25T10:12:11.448Z,56.00
2018-09-25T10:14:45.372Z,54.00
2018-09-25T10:17:19.357Z,50.80
2018-09-25T10:19:53.408Z,53.70
2018-09-25T10:22:27.301Z,51.90
2018-09-25T10:25:01.369Z,55.70
2018-09-25T10:27:35.310Z,51.30
2018-09-25T10:30:09.294Z,52.80
2018-09-25T10:32:43.197Z,52.80
2018-09-25T10:35:17.493Z,52.30
2018-09-25T10:37:51.573Z,51.20
2018-09-25T10:40:25.542Z,51.60
2018-09-25T10:42:59.468Z,52.90
2018-09-25T10:45:33.521Z,53.70
2018-09-25T10:48:07.530Z,55.40
2018-09-25T10:50:41.595Z,56.30
2018-09-25T10:53:15.619Z,55.40
2018-09-25T10:55:49.670Z,53.40
2018-09-25T10:58:23.725Z,53.60
2018-09-25T11:00:57.651Z,52.00
2018-09-25T11:03:31.715Z,50.80
2018-09-25T11:06:05.802Z,54.50
2018-09-25T11:08:39.836Z,52.20
2018-09-25T11:11:13.904Z,52.20
2018-09-25T11:13:47.770Z,55.10
2018-09-25T11:16:21.774Z,52.50
2018-09-25T11:18:55.805Z,50.80
2018-09-25T11:21:29.767Z,51.50
2018-09-25T11:24:03.715Z,51.20
2018-09-25T11:26:37.603Z,51.90
2018-09-25T11:29:11.471Z,50.50
2018-09-25T11:31:45.438Z,51.00
2018-09-25T11:34:19.305Z,52.00
2018-09-25T11:36:53.290Z,51.70
2018-09-25T11:39:27.380Z,52.20
2018-09-25T11:42:01.365Z,54.40
2018-09-25T11:44:35.491Z,55.60
2018-09-25T11:47:09.401Z,52.70
2018-09-25T11:49:43.559Z,54.20
2018-09-25T11:52:17.599Z,52.20
2018-09-25T11:54:51.764Z,52.50
2018-09-25T11:57:25.723Z,52.70
2018-09-25T11:59:59.742Z,54.00
2018-09-25T12:02:33.861Z,55.50
2018-09-25T12:05:07.890Z,55.50
2018-09-25T12:07:41.937Z,50.90
2018-09-25T12:10:16.054Z,51.30
2018-09-25T12:12:49.964Z,51.20
2018-09-25T12:15:23.865Z,52.60
2018-09-25T12:17:57.825Z,53.80
2018-09-25T12:20:31.788Z,54.10
2018-09-25T12:23:05.849Z,54.30
2018-09-25T12:25:39.888Z,52.50
2018-09-25T12:28:13.882Z,50.30
2018-09-25T12:30:47.766Z,48.30
2018-09-25T12:33:21.880Z,48.70
2018-09-25T12:35:55.988Z,49.00
2018-09-25T12:38:30.000Z,49.60
2018-09-25T12:41:03.978Z,50.30
2018-09-25T12:43:37.959Z,48.70
2018-09-25T12:46:11.973Z,46.70
2018-09-25T12:48:45.926Z,46.50
2018-09-25T12:51:19.938Z,50.10
2018-09-25T12:53:53.823Z,49.00
2018-09-25T12:56:27.858Z,50.50
2018-09-25T12:59:01.738Z,50.70
2018-09-25T13:01:35.760Z,50.40
2018-09-25T13:04:09.867Z,47.50
2018-09-25T13:06:43.761Z,48.00
2018-09-25T13:09:17.708Z,49.60
2018-09-25T13:11:51.891Z,50.30
2018-09-25T13:14:25.988Z,49.50
2018-09-25T13:17:00.168Z,49.20
2018-09-25T13:19:34.219Z,49.50
2018-09-25T13:22:08.231Z,48.00
2018-09-25T13:24:42.178Z,50.50
2018-09-25T13:27:30.047Z,49.80
2018-09-25T13:30:04.274Z,51.60
2018-09-25T13:32:38.439Z,53.70
2018-09-25T13:35:12.424Z,50.50
2018-09-25T13:37:46.581Z,51.40
2018-09-25T13:40:20.541Z,50.00
2018-09-25T13:42:54.695Z,49.80
2018-09-25T13:45:28.718Z,48.80
2018-09-25T13:48:02.835Z,48.70
2018-09-25T13:50:37.058Z,46.50
2018-09-25T13:53:12.816Z,46.60
2018-09-25T13:55:46.805Z,49.00
2018-09-25T13:58:21.689Z,48.80
2018-09-25T14:00:56.028Z,48.00
2018-09-25T14:03:30.064Z,48.80
2018-09-25T14:06:04.088Z,50.30
2018-09-25T14:08:38.178Z,51.70
2018-09-25T14:11:12.290Z,52.20
2018-09-25T14:13:53.264Z,51.50
2018-09-25T14:16:28.971Z,55.00
2018-09-25T14:19:02.993Z,51.50
2018-09-25T14:21:37.066Z,49.50
2018-09-25T14:24:11.104Z,51.40
2018-09-25T14:26:45.004Z,49.90
2018-09-25T14:29:19.041Z,49.60
2018-09-25T14:31:53.039Z,51.00
2018-09-25T14:34:26.998Z,51.40
2018-09-25T14:37:01.088Z,50.40
2018-09-25T14:39:35.062Z,50.30
2018-09-25T14:42:09.163Z,51.20
2018-09-25T14:44:43.171Z,52.00
2018-09-25T14:47:17.277Z,51.40
2018-09-25T14:49:51.421Z,51.40
2018-09-25T14:52:25.445Z,51.90
2018-09-25T14:54:59.520Z,51.90
2018-09-25T14:57:33.664Z,53.40
2018-09-25T15:00:07.659Z,53.50
2018-09-25T15:02:41.647Z,54.20
2018-09-25T15:05:15.642Z,54.30
2018-09-25T15:07:49.532Z,55.70
2018-09-25T15:10:23.454Z,53.30
2018-09-25T15:12:57.521Z,52.80
2018-09-25T15:15:31.459Z,52.60
2018-09-25T15:18:05.568Z,52.70
2018-09-25T15:20:39.480Z,50.80
2018-09-25T15:23:13.349Z,51.30
2018-09-25T15:25:47.532Z,52.30
2018-09-25T15:28:21.612Z,53.40
2018-09-25T15:30:55.581Z,52.80
2018-09-25T15:33:29.670Z,50.60
2018-09-25T15:36:04.423Z,50.60
2018-09-25T15:38:38.449Z,50.60
2018-09-25T15:41:13.110Z,50.40
2018-09-25T15:43:47.091Z,50.00
2018-09-25T15:46:21.117Z,53.90
2018-09-25T15:48:55.435Z,53.10
2018-09-25T15:51:29.419Z,55.50
2018-09-25T15:54:05.288Z,56.00
2018-09-25T15:56:39.343Z,55.20
2018-09-25T15:59:15.700Z,55.60
2018-09-25T16:01:49.490Z,55.30
2018-09-25T16:04:23.696Z,55.90
2018-09-25T16:06:57.734Z,56.70
2018-09-25T16:09:31.795Z,56.20
2018-09-25T16:12:05.833Z,59.30
2018-09-25T16:14:39.739Z,58.40
2018-09-25T16:17:14.485Z,58.00
2018-09-25T16:19:48.855Z,58.20
2018-09-25T16:22:23.558Z,57.80
2018-09-25T16:24:57.594Z,56.20
2018-09-25T16:27:32.624Z,55.10
2018-09-25T16:30:07.679Z,56.60
2018-09-25T16:32:42.889Z,57.00
2018-09-25T16:35:16.843Z,57.50
2018-09-25T16:37:50.928Z,57.10
2018-09-25T16:40:24.963Z,57.40
2018-09-25T16:43:01.139Z,57.90
2018-09-25T16:45:35.260Z,59.60
2018-09-25T16:48:09.397Z,60.30
2018-09-25T16:50:43.494Z,59.70
2018-09-25T16:53:17.800Z,62.00
2018-09-25T16:55:55.061Z,60.40
2018-09-25T16:58:30.586Z,60.50
2018-09-25T17:01:07.124Z,61.50
2018-09-25T17:03:41.161Z,62.90
2018-09-25T17:06:15.552Z,61.30
2018-09-25T17:08:50.356Z,63.00
2018-09-25T17:11:26.718Z,62.50
2018-09-25T17:14:17.150Z,63.00
2018-09-25T17:16:53.119Z,65.10
2018-09-25T17:19:27.422Z,67.10
2018-09-25T17:22:01.443Z,67.70
2018-09-25T17:24:35.529Z,67.40
2018-09-25T17:27:10.204Z,68.50
2018-09-25T17:29:44.525Z,68.70
2018-09-25T17:32:18.774Z,69.00
2018-09-25T17:34:52.993Z,69.20
2018-09-25T17:37:27.070Z,69.50
2018-09-25T17:40:02.366Z,69.50
2018-09-25T17:42:36.903Z,69.80
2018-09-25T17:45:11.020Z,70.60
2018-09-25T17:47:45.641Z,70.70
2018-09-25T17:50:19.621Z,71.30
2018-09-25T17:52:53.699Z,71.10
2018-09-25T17:55:28.990Z,70.10
2018-09-25T17:58:04.738Z,71.10
2018-09-25T18:00:39.748Z,72.30
2018-09-25T18:03:14.737Z,73.40
2018-09-25T18:05:48.710Z,73.30
2018-09-25T18:08:23.393Z,73.40
2018-09-25T18:11:03.047Z,75.50
2018-09-25T18:13:40.936Z,75.20
2018-09-25T18:16:15.203Z,76.30
2018-09-25T18:18:49.285Z,76.20
2018-09-25T18:21:23.569Z,76.20
2018-09-25T18:23:58.160Z,76.10
2018-09-25T18:26:38.113Z,76.10
2018-09-25T18:29:12.546Z,76.00
2018-09-25T18:31:46.645Z,76.00
2018-09-25T18:34:20.617Z,76.00
2018-09-25T18:36:54.634Z,76.90
2018-09-25T18:39:29.183Z,77.50
2018-09-25T18:42:03.185Z,77.60
2018-09-25T18:44:37.217Z,78.00
2018-09-25T18:47:11.158Z,77.90
2018-09-25T18:49:45.822Z,78.20
2018-09-25T18:52:20.226Z,77.70
2018-09-25T18:54:56.465Z,78.10
2018-09-25T18:57:31.138Z,78.30
2018-09-25T19:00:05.082Z,78.90
2018-09-25T19:02:39.793Z,79.20
2018-09-25T19:05:15.641Z,78.80
2018-09-25T19:07:52.991Z,79.00
2018-09-25T19:10:27.028Z,78.80
2018-09-25T19:13:01.419Z,78.60
2018-09-25T19:15:37.595Z,79.40
2018-09-25T19:18:12.367Z,79.40
2018-09-25T19:20:46.579Z,79.90
2018-09-25T19:23:21.581Z,79.60
2018-09-25T19:25:55.689Z,80.00
2018-09-25T19:28:31.542Z,80.40
2018-09-25T19:31:05.907Z,80.00
2018-09-25T19:33:41.098Z,80.70
2018-09-25T19:36:15.574Z,80.40
2018-09-25T19:38:49.622Z,80.40
2018-09-25T19:41:25.076Z,80.60
2018-09-25T19:43:59.706Z,80.50
2018-09-25T19:46:36.061Z,81.00
2018-09-25T19:49:13.816Z,80.90
2018-09-25T19:51:47.984Z,80.80
2018-09-25T19:54:23.161Z,80.90
2018-09-25T19:56:57.104Z,81.30
2018-09-25T19:59:34.766Z,81.80
2018-09-25T20:02:10.769Z,80.20
2018-09-25T20:04:46.444Z,80.70
2018-09-25T20:07:20.652Z,80.70
2018-09-25T20:09:54.734Z,81.10
2018-09-25T20:12:28.749Z,80.40
2018-09-25T20:15:02.786Z,80.30
2018-09-25T20:17:37.012Z,81.70
2018-09-25T20:20:11.102Z,82.60
2018-09-25T20:22:45.026Z,83.40
2018-09-25T20:25:19.032Z,83.30
2018-09-25T20:27:53.092Z,84.00
2018-09-25T20:30:27.301Z,82.90
2018-09-25T20:33:01.268Z,83.30
2018-09-25T20:35:35.479Z,82.40
2018-09-25T20:38:09.498Z,82.50
2018-09-25T20:40:43.572Z,81.90
2018-09-25T20:43:17.841Z,81.50
2018-09-25T20:45:51.787Z,82.00
2018-09-25T20:48:26.069Z,82.20
2018-09-25T20:51:00.176Z,83.10
2018-09-25T20:53:34.560Z,83.70
2018-09-25T20:56:08.648Z,83.90
2018-09-25T20:58:42.834Z,83.70
2018-09-25T21:01:16.859Z,84.00
2018-09-25T21:03:50.974Z,83.90
2018-09-25T21:06:25.023Z,84.00
2018-09-25T21:08:59.250Z,84.00
2018-09-25T21:11:33.380Z,83.70
2018-09-25T21:14:07.647Z,83.70
2018-09-25T21:16:41.772Z,82.70
2018-09-25T21:19:15.901Z,82.90
2018-09-25T21:21:49.929Z,83.50
2018-09-25T21:24:23.901Z,82.90
2018-09-25T21:26:58.140Z,83.10
2018-09-25T21:29:32.249Z,83.40
2018-09-25T21:32:06.770Z,82.20
2018-09-25T21:34:40.796Z,82.10
2018-09-25T21:37:14.749Z,82.20
2018-09-25T21:39:48.742Z,82.20
2018-09-25T21:42:22.994Z,82.10
2018-09-25T21:44:57.208Z,82.10
2018-09-25T21:47:31.121Z,82.50
2018-09-25T21:50:05.181Z,82.90
2018-09-25T21:52:39.178Z,83.00
2018-09-25T21:55:13.286Z,83.00
2018-09-25T21:57:47.517Z,83.50
2018-09-25T22:00:21.541Z,83.40
2018-09-25T22:02:55.699Z,83.50
2018-09-25T22:05:29.857Z,84.00
2018-09-25T22:08:04.094Z,84.50
2018-09-25T22:10:38.360Z,85.00
2018-09-25T22:13:22.326Z,84.90
2018-09-25T22:15:56.349Z,84.90
2018-09-25T22:18:30.335Z,84.30
2018-09-25T22:21:04.449Z,84.90
2018-09-25T22:23:38.381Z,84.50
2018-09-25T22:26:12.772Z,84.00
2018-09-25T22:28:46.914Z,84.20
2018-09-25T22:31:21.006Z,83.70
2018-09-25T22:33:54.905Z,83.70
2018-09-25T22:36:28.966Z,82.80
2018-09-25T22:39:03.109Z,83.30
2018-09-25T22:41:37.293Z,82.60
2018-09-25T22:44:11.421Z,82.00
2018-09-25T22:46:45.496Z,82.70
2018-09-25T22:49:19.519Z,83.20
2018-09-25T22:51:53.575Z,83.00
2018-09-25T22:54:27.940Z,83.80
2018-09-25T22:57:01.859Z,84.60
2018-09-25T22:59:35.914Z,84.10
2018-09-25T23:02:09.928Z,84.60
2018-09-25T23:04:43.925Z,85.00
2018-09-25T23:07:18.081Z,84.40
2018-09-25T23:09:52.247Z,85.00
2018-09-25T23:12:26.332Z,84.20
2018-09-25T23:15:00.508Z,84.30
2018-09-25T23:17:34.562Z,83.80
2018-09-25T23:20:08.594Z,84.20
2018-09-25T23:22:42.654Z,84.80
2018-09-25T23:25:16.721Z,84.60
2018-09-25T23:27:50.853Z,84.70
2018-09-25T23:30:25.088Z,84.50
2018-09-25T23:32:58.990Z,84.90
2018-09-25T23:35:33.192Z,85.20
2018-09-25T23:38:07.202Z,84.50
2018-09-25T23:40:41.558Z,84.20
2018-09-25T23:43:15.771Z,84.70
2018-09-25T23:45:57.854Z,84.80
2018-09-25T23:48:31.698Z,84.30
2018-09-25T23:51:05.810Z,84.70
2018-09-25T23:53:41.513Z,84.50
2018-09-25T23:56:14.670Z,83.60
2018-09-25T23:58:48.881Z,83.30
